Time;durP1;ratioP1;P1;durP2;ratioP2;P2;SDS_P1;SDS_P2;PMS_P1;PMS_P2;Temp;Humidity;BMP_temperature;BMP_pressure;BME280_temperature;BME280_humidity;BME280_pressure;Samples;Min_cycle;Max_cycle;Signal;HPM_P1;HPM_P2
2023/04/12 00:02:13;;;;;;;13.87;12.77;;;3.10;99.90;;;;;;5059468;28;20184;-42
2023/04/12 00:04:40;;;;;;;13.60;12.50;;;3.10;99.90;;;;;;5059341;28;20185;-47
2023/04/12 00:07:08;;;;;;;14.27;13.13;;;3.10;99.90;;;;;;5059483;28;20188;-42
2023/04/12 00:09:35;;;;;;;14.75;13.55;;;3.00;99.90;;;;;;5058731;28;20234;-43
2023/04/12 00:12:01;;;;;;;14.65;13.15;;;3.00;99.90;;;;;;5058922;28;20264;-42
2023/04/12 00:14:27;;;;;;;14.30;13.10;;;3.00;99.90;;;;;;5059693;28;20234;-44
2023/04/12 00:16:53;;;;;;;14.70;13.50;;;3.10;99.90;;;;;;5060108;28;20189;-42
2023/04/12 00:19:18;;;;;;;15.30;13.90;;;3.10;99.90;;;;;;5058151;28;20902;-46
2023/04/12 00:21:44;;;;;;;14.90;13.53;;;3.10;99.90;;;;;;5059602;28;20181;-43
2023/04/12 00:24:10;;;;;;;15.10;13.77;;;3.00;99.90;;;;;;5059797;28;20189;-48
2023/04/12 00:26:36;;;;;;;15.67;14.17;;;3.00;99.90;;;;;;5059774;28;20254;-46
2023/04/12 00:29:01;;;;;;;14.23;13.10;;;2.90;99.90;;;;;;5059430;28;20212;-43
2023/04/12 00:31:28;;;;;;;14.80;13.33;;;2.90;99.90;;;;;;5060113;28;20181;-42
2023/04/12 00:33:53;;;;;;;15.85;14.55;;;2.80;99.90;;;;;;5058595;28;20579;-40
2023/04/12 00:36:19;;;;;;;16.10;13.70;;;2.90;99.90;;;;;;5058199;28;20246;-43
2023/04/12 00:38:45;;;;;;;15.30;13.80;;;2.90;99.90;;;;;;5040696;28;20259;-42
2023/04/12 00:41:11;;;;;;;15.80;14.20;;;2.80;99.90;;;;;;5059611;28;20681;-46
2023/04/12 00:43:41;;;;;;;15.18;13.85;;;2.80;99.90;;;;;;5059310;28;20188;-44
2023/04/12 00:46:07;;;;;;;15.77;14.38;;;2.80;99.90;;;;;;5059105;28;20192;-43
2023/04/12 00:48:33;;;;;;;15.30;14.00;;;2.70;99.90;;;;;;5059569;28;20569;-44
2023/04/12 00:51:00;;;;;;;14.65;13.45;;;2.70;99.90;;;;;;5058984;28;20193;-43
2023/04/12 00:53:27;;;;;;;14.82;13.63;;;2.60;99.90;;;;;;5058872;28;20192;-42
2023/04/12 00:55:53;;;;;;;15.25;13.95;;;2.60;99.90;;;;;;5059762;28;20193;-42
2023/04/12 00:58:23;;;;;;;15.43;14.02;;;2.60;99.90;;;;;;5058731;28;20265;-44
2023/04/12 01:00:49;;;;;;;14.10;12.90;;;2.50;99.90;;;;;;5040643;28;20187;-46
2023/04/12 01:03:22;;;;;;;15.32;13.95;;;2.60;99.90;;;;;;5041650;28;20242;-48
2023/04/12 01:06:28;;;;;;;16.02;14.63;;;2.50;99.90;;;;;;5041401;28;20694;-49
2023/04/12 01:09:03;;;;;;;14.60;13.35;;;2.50;99.90;;;;;;5037441;28;20201;-43
2023/04/12 01:11:37;;;;;;;15.57;14.07;;;2.50;99.90;;;;;;5058386;28;20684;-44
2023/04/12 01:14:20;;;;;;;15.20;13.80;;;2.40;99.90;;;;;;5059145;28;20192;-42
2023/04/12 01:16:49;;;;;;;15.23;13.77;;;2.50;99.90;;;;;;5058768;28;20556;-45
2023/04/12 01:19:32;;;;;;;15.02;13.73;;;2.40;99.90;;;;;;5059395;28;20250;-45
2023/04/12 01:22:28;;;;;;;14.82;13.45;;;2.40;99.90;;;;;;5058288;28;20234;-43
2023/04/12 01:25:22;;;;;;;14.50;13.20;;;2.30;99.90;;;;;;5059459;28;20180;-41
2023/04/12 01:27:52;;;;;;;13.60;12.30;;;2.30;99.90;;;;;;5057862;28;20173;-41
2023/04/12 01:30:19;;;;;;;15.25;13.90;;;2.30;99.90;;;;;;5062554;28;20627;-47
2023/04/12 01:32:49;;;;;;;13.80;12.63;;;2.30;99.90;;;;;;5066000;28;20185;-43
2023/04/12 01:35:18;;;;;;;15.07;13.77;;;2.30;99.90;;;;;;5065575;28;20177;-44
2023/04/12 01:37:44;;;;;;;15.38;13.90;;;2.30;99.90;;;;;;5065047;28;20176;-42
2023/04/12 01:40:12;;;;;;;13.85;12.75;;;2.30;99.90;;;;;;5063088;28;20706;-42
2023/04/12 01:42:38;;;;;;;14.40;13.20;;;2.20;99.90;;;;;;5065446;28;20547;-45
2023/04/12 01:45:04;;;;;;;15.48;14.07;;;2.20;99.90;;;;;;5065855;28;20711;-44
2023/04/12 01:47:31;;;;;;;14.20;12.93;;;2.10;99.90;;;;;;5065133;28;20176;-43
2023/04/12 01:50:34;;;;;;;13.05;11.85;;;2.20;99.90;;;;;;5065186;28;20531;-43
2023/04/12 01:53:18;;;;;;;13.68;12.50;;;2.10;99.90;;;;;;5064478;28;20428;-43
2023/04/12 01:55:45;;;;;;;13.80;12.50;;;2.10;99.90;;;;;;5064732;28;20256;-43
2023/04/12 01:58:14;;;;;;;14.50;13.02;;;2.10;99.90;;;;;;5064540;28;20208;-42
2023/04/12 02:00:42;;;;;;;13.95;12.55;;;2.10;99.90;;;;;;5064597;28;20188;-43
2023/04/12 02:03:09;;;;;;;13.88;12.68;;;2.00;99.90;;;;;;5064917;28;20703;-40
2023/04/12 02:05:35;;;;;;;15.27;13.77;;;2.00;99.90;;;;;;5064986;28;20196;-41
2023/04/12 02:08:01;;;;;;;14.70;13.40;;;1.90;99.90;;;;;;5064571;28;20672;-42
2023/04/12 02:10:29;;;;;;;14.10;12.65;;;1.90;99.90;;;;;;5064338;28;20185;-44
2023/04/12 02:12:57;;;;;;;13.20;11.90;;;1.90;99.90;;;;;;5064610;28;20685;-43
2023/04/12 02:15:22;;;;;;;14.00;12.70;;;1.90;99.90;;;;;;5065420;28;20185;-47
2023/04/12 02:17:52;;;;;;;13.80;12.00;;;1.90;99.90;;;;;;5063343;28;20245;-47
2023/04/12 02:20:19;;;;;;;13.38;12.18;;;1.90;99.90;;;;;;5044988;28;20188;-45
2023/04/12 02:22:45;;;;;;;14.15;12.45;;;1.80;99.90;;;;;;5064775;28;20283;-42
2023/04/12 02:25:11;;;;;;;13.40;12.20;;;1.80;99.90;;;;;;5065030;28;20177;-44
2023/04/12 02:27:37;;;;;;;13.05;12.05;;;1.80;99.90;;;;;;5064627;28;20257;-44
2023/04/12 02:30:04;;;;;;;14.30;12.80;;;1.80;99.90;;;;;;5065379;28;20707;-43
2023/04/12 02:32:29;;;;;;;14.55;13.02;;;1.80;99.90;;;;;;5046588;28;20227;-41
2023/04/12 02:34:56;;;;;;;13.47;12.27;;;1.70;99.90;;;;;;5065294;28;20185;-42
2023/04/12 02:37:23;;;;;;;13.55;12.30;;;1.70;99.90;;;;;;5064957;28;20177;-43
2023/04/12 02:39:49;;;;;;;13.95;12.65;;;1.70;99.90;;;;;;5045522;28;20578;-45
2023/04/12 02:42:14;;;;;;;13.37;12.17;;;1.60;99.90;;;;;;5060549;28;20181;-43
2023/04/12 02:44:42;;;;;;;13.30;12.20;;;1.70;99.90;;;;;;5060647;28;20678;-42
2023/04/12 02:47:07;;;;;;;13.30;12.02;;;1.70;99.90;;;;;;5061685;28;20219;-47
2023/04/12 02:49:33;;;;;;;15.67;14.17;;;1.70;99.90;;;;;;5043232;28;20185;-45
2023/04/12 02:51:59;;;;;;;15.03;13.53;;;1.70;99.90;;;;;;5061699;28;20195;-41
2023/04/12 02:54:25;;;;;;;13.57;12.33;;;1.60;99.90;;;;;;5061155;28;20530;-43
2023/04/12 02:56:50;;;;;;;14.50;13.20;;;1.60;99.90;;;;;;5043125;28;20447;-43
2023/04/12 02:59:16;;;;;;;14.43;13.07;;;1.70;99.90;;;;;;5060887;28;20455;-42
2023/04/12 03:01:45;;;;;;;14.90;13.40;;;1.60;99.90;;;;;;5061759;28;20559;-43
2023/04/12 03:04:11;;;;;;;13.95;12.65;;;1.60;99.90;;;;;;5060572;28;20177;-42
2023/04/12 03:06:39;;;;;;;13.77;12.57;;;1.60;99.90;;;;;;5061693;28;20215;-44
2023/04/12 03:09:05;;;;;;;14.55;13.20;;;1.50;99.90;;;;;;5061313;28;20506;-43
2023/04/12 03:11:31;;;;;;;14.32;12.82;;;1.50;99.90;;;;;;5060014;28;20310;-44
2023/04/12 03:13:56;;;;;;;14.73;13.20;;;1.50;99.90;;;;;;5061494;28;20655;-41
2023/04/12 03:16:24;;;;;;;15.83;14.03;;;1.50;99.90;;;;;;5061643;28;20194;-44
2023/04/12 03:18:50;;;;;;;15.10;12.95;;;1.50;99.90;;;;;;5061299;28;20240;-43
2023/04/12 03:21:16;;;;;;;14.90;13.50;;;1.40;99.90;;;;;;5061932;28;20690;-42
2023/04/12 03:23:42;;;;;;;16.60;13.65;;;1.40;99.90;;;;;;5061218;28;20471;-43
2023/04/12 03:26:08;;;;;;;15.13;13.53;;;1.40;99.90;;;;;;5061325;28;20185;-43
2023/04/12 03:28:34;;;;;;;14.85;13.50;;;1.40;99.90;;;;;;5041954;28;20457;-43
2023/04/12 03:31:00;;;;;;;15.67;13.97;;;1.40;99.90;;;;;;5059914;28;20185;-46
2023/04/12 03:33:26;;;;;;;16.13;14.53;;;1.40;99.90;;;;;;5060661;28;21029;-45
2023/04/12 03:35:52;;;;;;;14.60;13.20;;;1.40;99.90;;;;;;5061052;28;20211;-44
2023/04/12 03:38:17;;;;;;;15.17;13.57;;;1.40;99.90;;;;;;5060666;28;20284;-43
2023/04/12 03:40:43;;;;;;;15.63;14.13;;;1.40;99.90;;;;;;5058969;28;20557;-44
2023/04/12 03:43:08;;;;;;;16.20;14.50;;;1.40;99.90;;;;;;5058717;28;20188;-44
2023/04/12 03:45:34;;;;;;;15.57;14.07;;;1.40;99.90;;;;;;5060088;28;20539;-44
2023/04/12 03:48:00;;;;;;;15.93;14.33;;;1.40;99.90;;;;;;5059708;28;20598;-44
2023/04/12 03:50:28;;;;;;;15.70;14.10;;;1.50;99.90;;;;;;5060970;28;20595;-41
2023/04/12 03:52:54;;;;;;;16.60;14.98;;;1.40;99.90;;;;;;5059067;28;20173;-47
2023/04/12 03:55:19;;;;;;;15.80;13.70;;;1.40;99.90;;;;;;5040939;28;20443;-42
2023/04/12 03:57:45;;;;;;;14.80;13.40;;;1.50;99.90;;;;;;5041791;28;20678;-43
2023/04/12 04:00:11;;;;;;;15.37;13.73;;;1.50;99.90;;;;;;5059967;28;20181;-44
2023/04/12 04:02:37;;;;;;;15.88;14.27;;;1.50;99.90;;;;;;5058964;28;20189;-43
2023/04/12 04:05:03;;;;;;;15.40;13.90;;;1.50;99.90;;;;;;5060368;28;20211;-42
2023/04/12 04:07:30;;;;;;;15.32;13.82;;;1.50;99.90;;;;;;5059407;28;20683;-41
2023/04/12 04:09:56;;;;;;;15.80;14.20;;;1.50;99.90;;;;;;5058633;28;20184;-42
2023/04/12 04:12:22;;;;;;;15.77;14.20;;;1.50;99.90;;;;;;5058220;28;20258;-41
2023/04/12 04:14:47;;;;;;;16.10;14.27;;;1.50;99.90;;;;;;5059055;28;20446;-42
2023/04/12 04:17:13;;;;;;;16.17;14.47;;;1.50;99.90;;;;;;5060113;28;20647;-42
2023/04/12 04:19:39;;;;;;;17.10;15.30;;;1.50;99.90;;;;;;5057278;28;20219;-42
2023/04/12 04:22:04;;;;;;;15.60;13.90;;;1.50;99.90;;;;;;5057893;28;20236;-42
2023/04/12 04:24:30;;;;;;;15.77;14.10;;;1.50;99.90;;;;;;5059694;28;20193;-43
2023/04/12 04:26:55;;;;;;;16.10;14.23;;;1.50;99.90;;;;;;5059608;28;20243;-41
2023/04/12 04:29:21;;;;;;;20.13;15.70;;;1.60;99.90;;;;;;5060313;28;20223;-44
2023/04/12 04:31:47;;;;;;;18.93;16.80;;;1.50;99.90;;;;;;5058328;28;20195;-43
2023/04/12 04:34:13;;;;;;;19.00;17.00;;;1.60;99.90;;;;;;5060479;28;20221;-47
2023/04/12 04:36:40;;;;;;;18.50;15.80;;;1.60;99.90;;;;;;5059461;28;20223;-42
2023/04/12 04:39:06;;;;;;;19.05;16.08;;;1.60;99.90;;;;;;5059553;28;20295;-43
2023/04/12 04:41:38;;;;;;;17.93;16.00;;;1.50;99.90;;;;;;5039749;28;20195;-47
2023/04/12 04:44:08;;;;;;;17.88;15.98;;;1.50;99.90;;;;;;5060646;28;20192;-43
2023/04/12 04:46:35;;;;;;;19.48;15.63;;;1.50;99.90;;;;;;5059719;28;20182;-46
2023/04/12 04:49:01;;;;;;;19.30;14.80;;;1.50;99.90;;;;;;5059167;28;20178;-43
2023/04/12 04:51:27;;;;;;;19.50;16.30;;;1.50;99.90;;;;;;5058967;28;20538;-42
2023/04/12 04:53:52;;;;;;;23.90;16.00;;;1.40;99.90;;;;;;5054880;28;20871;-46
2023/04/12 04:56:18;;;;;;;18.77;16.77;;;1.40;99.90;;;;;;5059421;28;20196;-44
2023/04/12 04:58:43;;;;;;;18.67;16.20;;;1.40;99.90;;;;;;5041917;28;20217;-43
2023/04/12 05:01:12;;;;;;;17.73;15.73;;;1.40;99.90;;;;;;5057788;28;20181;-44
2023/04/12 05:03:39;;;;;;;18.70;14.70;;;1.40;99.90;;;;;;5059426;28;20181;-44
2023/04/12 05:06:05;;;;;;;18.58;16.60;;;1.40;99.90;;;;;;5059335;28;20668;-46
2023/04/12 05:08:31;;;;;;;19.93;14.97;;;1.40;99.90;;;;;;5059720;28;20173;-43
2023/04/12 05:10:57;;;;;;;17.67;15.87;;;1.40;99.90;;;;;;5059212;28;20423;-46
2023/04/12 05:13:23;;;;;;;17.98;15.95;;;1.50;99.90;;;;;;5059549;28;20173;-43
2023/04/12 05:15:49;;;;;;;18.70;16.70;;;1.60;99.90;;;;;;5041333;28;20302;-45
2023/04/12 05:18:16;;;;;;;19.42;15.77;;;1.60;99.90;;;;;;5059199;28;20243;-43
2023/04/12 05:20:42;;;;;;;18.88;15.60;;;1.70;99.90;;;;;;5059586;28;20187;-45
2023/04/12 05:23:08;;;;;;;17.63;15.27;;;1.70;99.90;;;;;;5041219;28;20579;-47
2023/04/12 05:25:33;;;;;;;19.27;16.73;;;1.80;99.90;;;;;;5059570;28;20189;-43
2023/04/12 05:27:59;;;;;;;16.60;14.97;;;1.80;99.90;;;;;;5059788;28;20713;-43
2023/04/12 05:30:25;;;;;;;17.13;15.40;;;1.90;99.90;;;;;;5058214;28;20284;-44
2023/04/12 05:32:50;;;;;;;20.97;16.73;;;2.00;99.90;;;;;;5059548;28;20423;-48
2023/04/12 05:35:16;;;;;;;16.73;14.97;;;2.10;99.90;;;;;;5059323;28;20173;-43
2023/04/12 05:37:42;;;;;;;19.23;17.30;;;2.10;99.90;;;;;;5059613;28;20185;-43
2023/04/12 05:40:11;;;;;;;19.30;16.40;;;2.20;99.90;;;;;;5059614;28;20212;-45
2023/04/12 05:42:36;;;;;;;19.73;15.82;;;2.30;99.90;;;;;;5059011;28;20252;-45
2023/04/12 05:45:03;;;;;;;19.77;17.67;;;2.40;99.90;;;;;;5059330;28;20187;-40
2023/04/12 05:47:29;;;;;;;18.00;16.27;;;2.50;99.90;;;;;;5059578;28;20647;-41
2023/04/12 05:49:54;;;;;;;19.23;16.30;;;2.60;99.90;;;;;;5059030;28;20188;-40
2023/04/12 05:52:20;;;;;;;17.83;16.03;;;2.60;99.90;;;;;;5059147;28;20550;-40
2023/04/12 05:54:46;;;;;;;18.90;17.00;;;2.70;99.90;;;;;;5059101;28;20181;-42
2023/04/12 05:57:11;;;;;;;19.40;17.40;;;2.80;99.90;;;;;;5058922;28;20189;-40
2023/04/12 05:59:37;;;;;;;18.13;16.40;;;2.90;99.90;;;;;;5058377;28;20204;-40
2023/04/12 06:02:03;;;;;;;17.13;15.63;;;3.00;99.90;;;;;;5058268;28;20181;-40
2023/04/12 06:04:28;;;;;;;17.90;16.20;;;3.10;99.90;;;;;;5057777;28;20209;-41
2023/04/12 06:06:55;;;;;;;19.40;17.40;;;3.20;99.90;;;;;;5058329;28;21057;-41
2023/04/12 06:09:21;;;;;;;18.27;16.48;;;3.30;99.90;;;;;;5059041;28;20177;-40
2023/04/12 06:11:46;;;;;;;17.70;15.90;;;3.40;99.90;;;;;;5059051;28;20542;-40
2023/04/12 06:14:12;;;;;;;17.20;15.80;;;3.50;99.90;;;;;;5058735;28;20547;-40
2023/04/12 06:16:37;;;;;;;19.93;16.53;;;3.60;99.90;;;;;;5060141;28;20185;-40
2023/04/12 06:19:04;;;;;;;17.53;15.93;;;3.70;99.90;;;;;;5062634;28;20204;-44
2023/04/12 06:21:29;;;;;;;18.38;16.50;;;3.80;99.90;;;;;;5062956;28;20180;-41
2023/04/12 06:23:55;;;;;;;17.97;16.37;;;3.90;99.90;;;;;;5062498;28;20221;-41
2023/04/12 06:26:21;;;;;;;18.10;16.60;;;4.00;99.90;;;;;;5061033;28;20591;-41
2023/04/12 06:28:47;;;;;;;17.70;16.20;;;4.10;99.90;;;;;;5062032;28;20853;-40
2023/04/12 06:31:12;;;;;;;18.10;16.40;;;4.20;99.90;;;;;;5062220;28;20228;-40
2023/04/12 06:33:38;;;;;;;17.30;15.90;;;4.40;99.90;;;;;;5062376;28;20655;-41
2023/04/12 06:36:04;;;;;;;17.87;16.30;;;4.50;99.90;;;;;;5062388;28;20196;-43
2023/04/12 06:38:30;;;;;;;16.52;15.13;;;4.70;99.90;;;;;;5062344;28;20212;-42
2023/04/12 06:40:55;;;;;;;17.27;15.87;;;4.80;99.90;;;;;;5062394;28;20185;-40
2023/04/12 06:43:21;;;;;;;16.03;14.50;;;5.00;99.90;;;;;;5061936;28;20169;-45
2023/04/12 06:45:48;;;;;;;15.93;14.60;;;5.20;99.90;;;;;;5062713;28;20173;-42
2023/04/12 06:48:14;;;;;;;16.48;15.10;;;5.40;99.90;;;;;;5061892;28;21286;-47
2023/04/12 06:50:40;;;;;;;14.77;13.50;;;5.50;99.90;;;;;;5043991;28;20189;-43
2023/04/12 06:53:05;;;;;;;14.93;13.83;;;5.60;99.90;;;;;;5062059;28;20478;-45
2023/04/12 06:55:32;;;;;;;15.27;13.97;;;5.80;99.90;;;;;;5060698;28;20717;-45
2023/04/12 06:57:57;;;;;;;14.27;13.27;;;6.00;99.90;;;;;;5061525;28;20546;-41
2023/04/12 07:00:23;;;;;;;15.80;14.50;;;6.10;99.90;;;;;;5062158;28;20200;-44
2023/04/12 07:02:49;;;;;;;15.30;13.90;;;6.20;99.90;;;;;;5062042;28;20898;-46
2023/04/12 07:05:14;;;;;;;14.30;13.13;;;6.40;99.90;;;;;;5062080;28;20408;-44
2023/04/12 07:07:40;;;;;;;15.40;14.23;;;6.50;99.90;;;;;;5061748;28;20592;-43
2023/04/12 07:10:06;;;;;;;15.50;14.37;;;6.70;99.90;;;;;;5061854;28;20270;-41
2023/04/12 07:12:32;;;;;;;14.07;12.87;;;6.80;99.90;;;;;;5059784;28;20227;-42
2023/04/12 07:14:58;;;;;;;14.60;13.50;;;7.00;99.90;;;;;;5061423;28;20423;-41
2023/04/12 07:17:25;;;;;;;14.50;13.43;;;7.10;99.90;;;;;;5061693;28;20929;-42
2023/04/12 07:19:55;;;;;;;11.97;11.17;;;7.20;99.90;;;;;;5061274;28;20471;-42
2023/04/12 07:22:20;;;;;;;12.67;11.77;;;7.40;99.90;;;;;;5061341;28;20462;-43
2023/04/12 07:24:47;;;;;;;14.13;13.13;;;7.60;99.90;;;;;;5060734;28;20422;-40
2023/04/12 07:27:13;;;;;;;15.00;13.70;;;7.70;99.90;;;;;;5059920;28;20184;-41
2023/04/12 07:29:38;;;;;;;13.10;12.10;;;7.80;99.90;;;;;;5061324;28;20942;-41
2023/04/12 07:32:04;;;;;;;13.83;12.80;;;8.00;99.90;;;;;;5061614;28;20211;-41
2023/04/12 07:34:30;;;;;;;14.30;13.20;;;8.10;99.90;;;;;;5061657;28;20189;-41
2023/04/12 07:36:56;;;;;;;13.40;12.50;;;8.30;99.90;;;;;;5061529;28;20408;-43
2023/04/12 07:39:21;;;;;;;12.97;12.07;;;8.40;99.90;;;;;;5043276;28;20308;-41
2023/04/12 07:41:48;;;;;;;13.10;12.30;;;8.60;99.90;;;;;;5061005;28;20481;-44
2023/04/12 07:44:14;;;;;;;12.93;12.13;;;8.70;99.90;;;;;;5061047;28;20490;-42
2023/04/12 07:46:40;;;;;;;11.47;10.77;;;8.90;99.90;;;;;;5061228;28;20461;-42
2023/04/12 07:49:07;;;;;;;13.00;12.00;;;9.00;99.90;;;;;;5061072;28;20184;-41
2023/04/12 07:51:32;;;;;;;13.10;12.20;;;9.20;99.90;;;;;;5061343;28;20415;-42
2023/04/12 07:53:58;;;;;;;13.73;12.63;;;9.30;99.90;;;;;;5060189;28;20504;-42
2023/04/12 07:56:24;;;;;;;12.67;11.87;;;9.50;99.90;;;;;;5061112;28;20210;-41
2023/04/12 07:58:50;;;;;;;12.53;11.83;;;9.60;99.90;;;;;;5061192;28;20297;-40
2023/04/12 08:01:15;;;;;;;11.20;10.53;;;9.80;99.90;;;;;;5060819;28;20714;-42
2023/04/12 08:03:41;;;;;;;11.70;11.00;;;10.00;99.90;;;;;;5060720;28;20463;-41
2023/04/12 08:06:07;;;;;;;12.80;12.00;;;10.20;99.20;;;;;;5060760;28;20195;-41
2023/04/12 08:08:33;;;;;;;13.43;12.43;;;10.30;96.70;;;;;;5060707;28;20185;-41
2023/04/12 08:11:01;;;;;;;12.47;11.70;;;10.40;93.10;;;;;;5060871;28;21134;-44
2023/04/12 08:13:27;;;;;;;13.30;12.30;;;10.50;93.50;;;;;;5060416;28;20635;-41
2023/04/12 08:15:53;;;;;;;11.90;11.17;;;10.70;93.60;;;;;;5060340;28;20426;-41
2023/04/12 08:18:18;;;;;;;11.67;11.07;;;10.90;93.20;;;;;;5060209;28;20203;-46
2023/04/12 08:20:44;;;;;;;11.37;10.70;;;11.20;91.90;;;;;;5060105;28;20185;-41
2023/04/12 08:23:10;;;;;;;10.60;9.90;;;11.40;87.40;;;;;;5060110;28;20294;-42
2023/04/12 08:25:37;;;;;;;10.33;9.63;;;11.70;76.30;;;;;;5060243;28;20218;-42
2023/04/12 08:28:02;;;;;;;10.50;9.90;;;11.90;76.00;;;;;;5060599;28;20925;-42
2023/04/12 08:30:28;;;;;;;12.70;12.00;;;12.20;62.20;;;;;;5060385;28;20523;-40
2023/04/12 08:32:54;;;;;;;9.73;9.20;;;12.30;60.00;;;;;;5060015;28;20891;-46
2023/04/12 08:35:21;;;;;;;10.13;9.53;;;12.60;58.00;;;;;;5060249;28;20232;-43
2023/04/12 08:37:47;;;;;;;10.73;10.10;;;12.70;55.90;;;;;;5042102;28;20272;-40
2023/04/12 08:40:13;;;;;;;10.53;10.00;;;13.00;55.60;;;;;;5059075;28;20465;-42
2023/04/12 08:42:39;;;;;;;9.30;8.80;;;13.20;54.60;;;;;;5059959;28;20260;-43
2023/04/12 08:45:06;;;;;;;10.83;10.00;;;13.30;52.50;;;;;;5059670;28;20422;-44
2023/04/12 08:47:33;;;;;;;9.60;9.00;;;13.50;51.50;;;;;;5059529;28;20193;-44
2023/04/12 08:50:01;;;;;;;10.70;10.10;;;13.70;50.70;;;;;;5060541;28;20415;-44
2023/04/12 08:52:27;;;;;;;10.47;9.87;;;13.80;49.80;;;;;;5060577;28;20411;-41
2023/04/12 08:54:57;;;;;;;9.70;9.10;;;14.10;48.70;;;;;;5058830;28;20462;-41
2023/04/12 08:57:23;;;;;;;10.07;9.57;;;14.40;48.60;;;;;;5041278;28;20197;-41
2023/04/12 08:59:52;;;;;;;9.80;9.20;;;14.90;46.80;;;;;;5060023;28;20590;-42
2023/04/12 09:02:18;;;;;;;10.63;9.90;;;15.20;46.00;;;;;;5059893;28;20411;-41
2023/04/12 09:04:51;;;;;;;9.57;8.80;;;14.80;41.20;;;;;;5059629;28;20908;-45
2023/04/12 09:07:16;;;;;;;10.67;10.00;;;14.70;41.80;;;;;;5059984;28;20602;-43
2023/04/12 09:09:44;;;;;;;10.00;9.30;;;15.00;43.30;;;;;;5059517;28;20498;-42
2023/04/12 09:12:10;;;;;;;10.23;9.73;;;15.60;42.80;;;;;;5059491;28;20189;-42
2023/04/12 09:14:37;;;;;;;10.13;9.57;;;15.90;41.30;;;;;;5059819;28;20422;-42
2023/04/12 09:17:04;;;;;;;10.07;9.57;;;16.40;41.00;;;;;;5059659;28;20510;-45
2023/04/12 09:19:32;;;;;;;9.57;9.03;;;16.50;39.00;;;;;;5059280;28;21085;-43
2023/04/12 09:21:58;;;;;;;9.93;8.90;;;16.20;38.20;;;;;;5058411;28;20481;-42
2023/04/12 09:24:24;;;;;;;10.30;9.70;;;16.20;37.90;;;;;;5058450;28;20823;-46
2023/04/12 09:27:10;;;;;;;10.73;10.00;;;16.10;38.30;;;;;;5059696;28;20659;-44
2023/04/12 09:29:35;;;;;;;10.17;9.57;;;16.50;37.50;;;;;;5059264;28;20546;-43
2023/04/12 09:32:02;;;;;;;9.93;9.40;;;17.00;38.10;;;;;;5060130;28;20415;-44
2023/04/12 09:34:29;;;;;;;10.97;10.37;;;17.00;37.60;;;;;;5059628;28;20200;-44
2023/04/12 09:36:56;;;;;;;10.70;10.10;;;17.10;37.30;;;;;;5059500;28;20905;-41
2023/04/12 09:39:34;;;;;;;10.77;10.07;;;17.30;36.80;;;;;;5059867;28;20465;-45
2023/04/12 09:42:07;;;;;;;10.00;9.50;;;17.60;36.60;;;;;;5059690;28;20430;-40
2023/04/12 09:44:33;;;;;;;10.03;9.43;;;16.90;35.80;;;;;;5059442;28;20415;-47
2023/04/12 09:47:04;;;;;;;10.10;9.60;;;16.60;37.40;;;;;;5059807;28;20427;-43
2023/04/12 09:49:43;;;;;;;10.53;9.90;;;17.30;37.60;;;;;;5059357;28;20208;-45
2023/04/12 09:52:13;;;;;;;10.70;10.10;;;18.10;36.80;;;;;;5062171;28;20422;-43
2023/04/12 09:54:48;;;;;;;9.57;8.90;;;18.60;35.00;;;;;;5063266;28;20901;-45
2023/04/12 09:57:18;;;;;;;10.20;9.60;;;18.80;33.70;;;;;;5063089;28;20456;-46
2023/04/12 09:59:47;;;;;;;9.73;9.23;;;19.20;32.10;;;;;;5062769;28;20976;-46
2023/04/12 10:02:25;;;;;;;10.50;9.90;;;19.60;31.10;;;;;;5062766;28;20439;-44
2023/04/12 10:04:51;;;;;;;10.57;10.07;;;19.70;29.50;;;;;;5062892;28;21107;-43
2023/04/12 10:07:18;;;;;;;10.07;9.57;;;19.80;28.80;;;;;;5063198;28;20412;-42
2023/04/12 10:09:44;;;;;;;10.87;10.20;;;18.90;28.80;;;;;;5063177;28;20415;-47
2023/04/12 10:12:10;;;;;;;10.90;10.30;;;18.10;30.10;;;;;;5063345;28;20609;-40
2023/04/12 10:14:36;;;;;;;11.77;11.07;;;18.40;31.00;;;;;;5062831;28;20410;-47
2023/04/12 10:17:03;;;;;;;10.17;9.67;;;17.40;30.10;;;;;;5062383;28;20604;-44
2023/04/12 10:19:32;;;;;;;11.90;11.27;;;17.80;32.90;;;;;;5062855;28;20547;-43
2023/04/12 10:22:00;;;;;;;11.67;11.07;;;17.90;32.70;;;;;;5063211;28;20427;-41
2023/04/12 10:24:27;;;;;;;10.43;9.80;;;18.20;33.50;;;;;;5062245;28;21021;-41
2023/04/12 10:26:54;;;;;;;9.87;9.37;;;18.50;32.50;;;;;;5062843;28;20442;-42
2023/04/12 10:29:27;;;;;;;10.97;10.37;;;19.00;33.00;;;;;;5062622;28;20890;-46
2023/04/12 10:31:54;;;;;;;11.03;10.37;;;19.40;31.70;;;;;;5062655;28;20415;-43
2023/04/12 10:34:27;;;;;;;12.47;11.67;;;20.00;31.20;;;;;;5062566;28;20411;-44
2023/04/12 10:36:57;;;;;;;11.33;10.57;;;20.00;30.50;;;;;;5062586;28;20498;-42
2023/04/12 10:39:44;;;;;;;11.67;10.70;;;19.90;30.20;;;;;;5062412;28;20542;-44
2023/04/12 10:42:18;;;;;;;10.53;9.83;;;19.60;31.10;;;;;;5062493;28;20407;-42
2023/04/12 10:44:44;;;;;;;12.20;11.60;;;19.00;31.70;;;;;;5061018;28;20487;-43
2023/04/12 10:47:10;;;;;;;11.50;11.00;;;19.50;32.70;;;;;;5062510;28;20855;-41
2023/04/12 10:49:37;;;;;;;11.17;10.47;;;18.90;30.90;;;;;;5061970;28;20416;-44
2023/04/12 10:52:09;;;;;;;11.60;11.00;;;18.80;32.60;;;;;;5061958;28;20196;-41
2023/04/12 10:54:35;;;;;;;12.13;11.43;;;19.20;33.50;;;;;;5061851;28;20421;-43
2023/04/12 10:57:02;;;;;;;11.47;10.77;;;19.10;31.90;;;;;;5062017;28;20434;-42
2023/04/12 10:59:51;;;;;;;10.97;10.17;;;18.80;33.20;;;;;;5061990;28;20486;-44
2023/04/12 11:02:17;;;;;;;11.93;11.33;;;19.50;33.70;;;;;;5061145;28;20435;-42
2023/04/12 11:05:03;;;;;;;12.03;11.27;;;20.10;32.50;;;;;;5062005;28;20411;-44
2023/04/12 11:07:39;;;;;;;12.77;12.07;;;19.80;32.30;;;;;;5061942;28;20617;-44
2023/04/12 11:10:15;;;;;;;12.50;11.70;;;19.20;32.40;;;;;;5061815;28;20431;-40
2023/04/12 11:12:46;;;;;;;12.40;11.60;;;18.80;33.40;;;;;;5061681;28;20427;-42
2023/04/12 11:15:12;;;;;;;12.33;11.63;;;18.90;33.90;;;;;;5061158;28;20513;-44
2023/04/12 11:17:38;;;;;;;11.60;10.93;;;18.40;34.90;;;;;;5061757;28;20415;-45
2023/04/12 11:20:09;;;;;;;10.60;10.10;;;18.90;36.40;;;;;;5062096;28;20475;-45
2023/04/12 11:22:35;;;;;;;12.30;11.63;;;19.60;34.90;;;;;;5061388;28;20255;-42
2023/04/12 11:25:02;;;;;;;11.30;10.70;;;20.70;33.50;;;;;;5061878;28;20429;-44
2023/04/12 11:27:29;;;;;;;12.60;11.80;;;21.40;32.40;;;;;;5061144;28;20492;-41
2023/04/12 11:29:56;;;;;;;11.17;10.57;;;20.80;29.80;;;;;;5061369;28;20777;-40
2023/04/12 11:32:25;;;;;;;13.00;12.13;;;20.80;31.30;;;;;;5061563;28;20423;-40
2023/04/12 11:34:53;;;;;;;12.37;11.67;;;20.90;30.60;;;;;;5061306;28;20631;-42
2023/04/12 11:37:19;;;;;;;12.80;11.80;;;21.80;31.20;;;;;;5061411;28;20829;-40
2023/04/12 11:39:47;;;;;;;13.00;12.20;;;20.90;29.20;;;;;;5060902;28;20458;-41
2023/04/12 11:42:23;;;;;;;11.60;10.90;;;20.20;31.20;;;;;;5060494;28;20445;-42
2023/04/12 11:44:50;;;;;;;11.93;11.23;;;20.10;32.10;;;;;;5061238;28;20510;-44
2023/04/12 11:47:17;;;;;;;12.00;11.30;;;20.50;32.10;;;;;;5061049;28;20973;-45
2023/04/12 11:49:45;;;;;;;13.07;12.27;;;20.10;32.30;;;;;;5060763;28;20419;-41
2023/04/12 11:52:11;;;;;;;12.10;11.40;;;20.60;32.70;;;;;;5060961;28;20420;-41
2023/04/12 11:54:40;;;;;;;11.67;10.90;;;21.00;31.90;;;;;;5061027;28;20450;-40
2023/04/12 11:57:06;;;;;;;11.93;11.23;;;21.50;31.60;;;;;;5060659;28;20430;-40
2023/04/12 11:59:33;;;;;;;11.87;11.17;;;21.40;30.70;;;;;;5060616;28;20459;-40
2023/04/12 12:02:03;;;;;;;13.10;12.40;;;20.80;31.10;;;;;;5061056;28;20645;-42
2023/04/12 12:04:29;;;;;;;14.27;13.27;;;20.50;31.80;;;;;;5060824;28;20454;-43
2023/04/12 12:06:57;;;;;;;12.87;12.10;;;19.10;33.30;;;;;;5060327;28;20418;-39
2023/04/12 12:09:25;;;;;;;11.43;10.63;;;18.50;35.50;;;;;;5060911;28;20788;-40
2023/04/12 12:11:51;;;;;;;12.83;12.03;;;19.00;36.40;;;;;;5060243;28;20419;-43
2023/04/12 12:14:21;;;;;;;12.20;11.50;;;19.30;35.40;;;;;;5040857;28;20435;-41
2023/04/12 12:16:58;;;;;;;10.07;9.47;;;19.70;33.10;;;;;;5059979;28;20646;-42
2023/04/12 12:19:32;;;;;;;11.60;10.97;;;20.00;32.70;;;;;;5060424;28;20744;-41
2023/04/12 12:22:18;;;;;;;10.97;10.37;;;20.20;32.80;;;;;;5058585;28;20415;-42
2023/04/12 12:24:51;;;;;;;11.37;10.80;;;19.50;31.50;;;;;;5060391;28;20469;-40
2023/04/12 12:27:29;;;;;;;11.20;10.43;;;19.40;32.90;;;;;;5042440;28;20805;-43
2023/04/12 12:30:00;;;;;;;10.47;9.97;;;19.60;32.30;;;;;;5060024;28;20419;-40
2023/04/12 12:32:26;;;;;;;10.60;10.00;;;19.30;32.80;;;;;;5060067;28;21157;-42
2023/04/12 12:34:53;;;;;;;11.77;11.17;;;20.10;32.90;;;;;;5060315;28;20423;-41
2023/04/12 12:37:22;;;;;;;11.37;10.77;;;20.40;31.50;;;;;;5042206;28;20431;-39
2023/04/12 12:40:14;;;;;;;12.57;11.87;;;21.20;32.60;;;;;;5059747;28;20464;-40